Time;durP1;ratioP1;P1;durP2;ratioP2;P2;SDS_P1;SDS_P2;PMS_P1;PMS_P2;Temp;Humidity;BMP_temperature;BMP_pressure;BME280_temperature;BME280_humidity;BME280_pressure;Samples;Min_cycle;Max_cycle;Signal;HPM_P1;HPM_P2
2024/04/18 05:20:59;;;;;;;;;;;;;;;;;;3475891;24;19953;-39
2024/04/18 05:23:25;;;;;;;;;;;;;;;;;;5416384;26;20354;-39
2024/04/18 05:25:50;;;;;;;;;;;;;;;;;;5415889;26;20370;-39
2024/04/18 05:28:21;;;;;;;;;;;;;;;;;;5415977;26;19929;-39
2024/04/18 05:31:05;;;;;;;;;;;;;;;;;;5415611;26;20403;-39
2024/04/18 05:33:31;;;;;;;;;;;;;;;;;;5414576;26;20728;-39
2024/04/18 05:35:57;;;;;;;;;;;;;;;;;;5416292;26;19936;-39
2024/04/18 05:38:23;;;;;;;;;;;;;;;;;;5416440;26;20001;-39
2024/04/18 05:40:49;;;;;;;;;;;;;;;;;;5415952;26;19936;-39
2024/04/18 05:43:15;;;;;;;;;;;;;;;;;;5415962;26;19929;-39
2024/04/18 05:45:40;;;;;;;;;;;;;;;;;;5416156;26;19994;-39
2024/04/18 05:48:06;;;;;;;;;;;;;;;;;;5416001;26;19936;-39
2024/04/18 05:50:32;;;;;;;;;;;;;;;;;;5416029;26;20455;-39
2024/04/18 05:52:58;;;;;;;;;;;;;;;;;;5415920;26;19935;-39
2024/04/18 05:55:24;;;;;;;;;;;;;;;;;;5415841;26;20107;-40
2024/04/18 05:57:50;;;;;;;;;;;;;;;;;;5384619;26;19940;-39
2024/04/18 06:00:16;;;;;;;;;;;;;;;;;;5415767;26;20451;-39
2024/04/18 06:02:42;;;;;;;;;;;;;;;;;;5413869;26;19936;-39
2024/04/18 06:05:07;;;;;;;;;;;;;;;;;;5415325;26;19944;-39
2024/04/18 06:07:33;;;;;;;;;;;;;;;;;;5415833;26;19937;-39
2024/04/18 06:09:59;;;;;;;;;;;;;;;;;;5415556;26;19929;-39
2024/04/18 06:12:25;;;;;;;;;;;;;;;;;;5416293;26;20407;-39
2024/04/18 06:14:51;;;;;;;;;;;;;;;;;;5415741;26;20263;-42
2024/04/18 06:17:17;;;;;;;;;;;;;;;;;;5415469;26;20006;-42
2024/04/18 06:19:43;;;;;;;;;;;;;;;;;;5415081;26;20539;-42
2024/04/18 06:22:09;;;;;;;;;;;;;;;;;;5415420;26;19929;-42
2024/04/18 06:24:34;;;;;;;;;;;;;;;;;;5415309;26;19930;-41
2024/04/18 06:27:01;;;;;;;;;;;;;;;;;;5415551;26;20005;-42
2024/04/18 06:29:28;;;;;;;;;;;;;;;;;;5415819;26;19929;-42
2024/04/18 06:31:54;;;;;;;;;;;;;;;;;;5414312;26;19933;-42
2024/04/18 06:34:22;;;;;;;;;;;;;;;;;;5415203;26;20385;-42
2024/04/18 06:36:48;;;;;;;;;;;;;;;;;;5415342;26;19929;-42
2024/04/18 06:39:14;;;;;;;;;;;;;;;;;;5414503;26;19929;-42
2024/04/18 06:41:40;;;;;;;;;;;;;;;;;;5414857;26;19936;-42
2024/04/18 06:44:06;;;;;;;;;;;;;;;;;;5414925;26;19939;-41
2024/04/18 06:46:32;;;;;;;;;;;;;;;;;;5424251;26;20357;-42
2024/04/18 06:48:58;;;;;;;;;;;;;;;;;;5434966;26;19929;-42
2024/04/18 06:51:24;;;;;;;;;;;;;;;;;;5414967;26;19941;-42
2024/04/18 06:53:49;;;;;;;;;;;;;;;;;;5438421;26;19929;-41
2024/04/18 06:56:15;;;;;;;;;;;;;;;;;;5450689;26;20360;-42
2024/04/18 06:58:41;;;;;;;;;;;;;;;;;;5424442;26;19941;-42
2024/04/18 07:01:07;;;;;;;;;;;;;;;;;;5414829;26;19929;-41
2024/04/18 07:03:33;;;;;;;;;;;;;;;;;;5412135;26;19929;-41
2024/04/18 07:05:59;;;;;;;;;;;;;;;;;;5407471;26;19944;-42
2024/04/18 07:08:25;;;;;;;;;;;;;;;;;;5403978;26;19997;-42
2024/04/18 07:10:51;;;;;;;;;;;;;;;;;;5409660;26;20365;-42
2024/04/18 07:13:17;;;;;;;;;;;;;;;;;;5423407;26;19957;-41
2024/04/18 07:15:42;;;;;;;;;;;;;;;;;;5421359;26;19976;-42
2024/04/18 07:18:08;;;;;;;;;;;;;;;;;;5423835;26;20006;-41
2024/04/18 07:20:34;;;;;;;;;;;;;;;;;;5430541;26;19939;-42
2024/04/18 07:23:00;;;;;;;;;;;;;;;;;;5434450;26;19934;-42
2024/04/18 07:25:26;;;;;;;;;;;;;;;;;;5417554;26;19936;-42
2024/04/18 07:27:52;;;;;;;;;;;;;;;;;;5411355;26;20036;-42
2024/04/18 07:30:19;;;;;;;;;;;;;;;;;;5412119;26;19940;-42
2024/04/18 07:32:45;;;;;;;;;;;;;;;;;;5413612;26;19929;-42
2024/04/18 07:35:11;;;;;;;;;;;;;;;;;;5414252;26;19937;-42
2024/04/18 07:37:37;;;;;;;;;;;;;;;;;;5413723;26;20006;-42
2024/04/18 07:40:12;;;;;;;;;;;;;;;;;;5430725;26;20365;-42
2024/04/18 07:42:38;;;;;;;;;;;;;;;;;;5432006;26;19996;-42
2024/04/18 07:45:04;;;;;;;;;;;;;;;;;;5412992;26;19936;-41
2024/04/18 07:47:29;;;;;;;;;;;;;;;;;;5414214;26;19929;-42
2024/04/18 07:49:55;;;;;;;;;;;;;;;;;;5412982;26;19929;-41
2024/04/18 07:52:21;;;;;;;;;;;;;;;;;;5414250;26;20380;-42
2024/04/18 07:54:47;;;;;;;;;;;;;;;;;;5414097;26;19929;-43
2024/04/18 07:57:13;;;;;;;;;;;;;;;;;;5413616;26;19929;-42
2024/04/18 07:59:39;;;;;;;;;;;;;;;;;;5413864;26;19929;-42
2024/04/18 08:02:05;;;;;;;;;;;;;;;;;;5413387;26;20399;-42
2024/04/18 08:04:31;;;;;;;;;;;;;;;;;;5414342;26;19929;-42
2024/04/18 08:06:56;;;;;;;;;;;;;;;;;;5413719;26;19929;-42
2024/04/18 08:09:22;;;;;;;;;;;;;;;;;;5413150;26;19936;-42
2024/04/18 08:11:48;;;;;;;;;;;;;;;;;;5413401;26;19936;-42
2024/04/18 08:14:14;;;;;;;;;;;;;;;;;;5413411;26;19936;-42
2024/04/18 08:16:40;;;;;;;;;;;;;;;;;;5413560;26;19936;-42
2024/04/18 08:19:06;;;;;;;;;;;;;;;;;;5413501;26;20059;-42
2024/04/18 08:21:32;;;;;;;;;;;;;;;;;;5413333;26;19933;-41
2024/04/18 08:24:01;;;;;;;;;;;;;;;;;;5413181;26;19929;-42
2024/04/18 08:26:27;;;;;;;;;;;;;;;;;;5413365;26;19940;-42
2024/04/18 08:28:53;;;;;;;;;;;;;;;;;;5412900;26;19933;-42
2024/04/18 08:31:19;;;;;;;;;;;;;;;;;;5404227;26;19929;-42
2024/04/18 08:33:46;;;;;;;;;;;;;;;;;;5397310;26;19937;-42
2024/04/18 08:36:12;;;;;;;;;;;;;;;;;;5412789;26;20007;-42
2024/04/18 08:38:38;;;;;;;;;;;;;;;;;;5412904;26;19937;-41
2024/04/18 08:41:10;;;;;;;;;;;;;;;;;;5413324;26;20447;-41
2024/04/18 08:43:36;;;;;;;;;;;;;;;;;;5416571;26;20291;-42
2024/04/18 08:46:01;;;;;;;;;;;;;;;;;;5417088;26;19929;-42
2024/04/18 08:48:27;;;;;;;;;;;;;;;;;;5416765;26;19929;-42
2024/04/18 08:50:53;;;;;;;;;;;;;;;;;;5416494;26;19964;-42
2024/04/18 08:53:19;;;;;;;;;;;;;;;;;;5416714;26;19929;-42
2024/04/18 08:55:45;;;;;;;;;;;;;;;;;;5416543;26;20271;-42
2024/04/18 08:58:11;;;;;;;;;;;;;;;;;;5416452;26;19929;-42
2024/04/18 09:00:37;;;;;;;;;;;;;;;;;;5416971;26;19948;-42
2024/04/18 09:03:03;;;;;;;;;;;;;;;;;;5416861;26;19929;-42
2024/04/18 09:05:29;;;;;;;;;;;;;;;;;;5416752;26;19929;-42
2024/04/18 09:07:54;;;;;;;;;;;;;;;;;;5416418;26;19936;-42
2024/04/18 09:10:23;;;;;;;;;;;;;;;;;;5416395;26;19935;-42
2024/04/18 09:12:51;;;;;;;;;;;;;;;;;;5416306;26;19929;-42
2024/04/18 09:15:16;;;;;;;;;;;;;;;;;;5416353;26;19938;-42
2024/04/18 09:17:42;;;;;;;;;;;;;;;;;;5416164;26;19929;-42
2024/04/18 09:20:09;;;;;;;;;;;;;;;;;;5416689;26;20370;-42
2024/04/18 09:22:35;;;;;;;;;;;;;;;;;;5406312;26;19998;-42
2024/04/18 09:25:01;;;;;;;;;;;;;;;;;;5416263;26;19941;-42
2024/04/18 09:27:26;;;;;;;;;;;;;;;;;;5416051;26;19929;-42
2024/04/18 09:29:52;;;;;;;;;;;;;;;;;;5412142;26;20278;-42
2024/04/18 09:32:18;;;;;;;;;;;;;;;;;;5410581;26;19997;-42
2024/04/18 09:34:47;;;;;;;;;;;;;;;;;;5425822;26;20361;-42
2024/04/18 09:37:13;;;;;;;;;;;;;;;;;;5414356;26;20006;-42
2024/04/18 09:39:39;;;;;;;;;;;;;;;;;;5413156;26;19941;-39
2024/04/18 09:42:05;;;;;;;;;;;;;;;;;;5409965;26;19930;-39
2024/04/18 09:44:30;;;;;;;;;;;;;;;;;;5405355;26;19956;-39
2024/04/18 09:46:56;;;;;;;;;;;;;;;;;;5415527;26;19943;-39
2024/04/18 09:49:22;;;;;;;;;;;;;;;;;;5414741;26;19941;-39
2024/04/18 09:51:48;;;;;;;;;;;;;;;;;;5416718;26;19929;-39
2024/04/18 09:54:14;;;;;;;;;;;;;;;;;;5414652;26;19929;-39
2024/04/18 09:56:40;;;;;;;;;;;;;;;;;;5415769;26;19929;-39
2024/04/18 09:59:06;;;;;;;;;;;;;;;;;;5432151;26;20068;-39
2024/04/18 10:01:32;;;;;;;;;;;;;;;;;;5420435;26;20369;-39
2024/04/18 10:03:58;;;;;;;;;;;;;;;;;;5415428;26;19936;-40
2024/04/18 10:06:24;;;;;;;;;;;;;;;;;;5418607;26;19928;-40
2024/04/18 10:08:50;;;;;;;;;;;;;;;;;;5414893;26;20607;-40
2024/04/18 10:11:16;;;;;;;;;;;;;;;;;;5413483;26;19935;-39
2024/04/18 10:13:45;;;;;;;;;;;;;;;;;;5411219;26;20312;-39
2024/04/18 10:16:11;;;;;;;;;;;;;;;;;;5415421;26;19929;-40
2024/04/18 10:18:36;;;;;;;;;;;;;;;;;;5406147;26;20028;-39
2024/04/18 10:21:02;;;;;;;;;;;;;;;;;;5402363;26;20370;-39
2024/04/18 10:23:28;;;;;;;;;;;;;;;;;;5415409;26;19936;-39
2024/04/18 10:25:54;;;;;;;;;;;;;;;;;;5413430;26;19994;-39
2024/04/18 10:28:20;;;;;;;;;;;;;;;;;;5415050;26;19936;-39
2024/04/18 10:30:46;;;;;;;;;;;;;;;;;;5413758;26;19937;-39
2024/04/18 10:33:12;;;;;;;;;;;;;;;;;;5415289;26;19941;-39
2024/04/18 10:35:37;;;;;;;;;;;;;;;;;;5410892;26;19965;-39
2024/04/18 10:38:04;;;;;;;;;;;;;;;;;;5413583;26;19929;-39
2024/04/18 10:40:31;;;;;;;;;;;;;;;;;;5413149;26;20291;-39
2024/04/18 10:42:57;;;;;;;;;;;;;;;;;;5415067;26;19933;-39
2024/04/18 10:45:23;;;;;;;;;;;;;;;;;;5436673;26;19951;-39
2024/04/18 10:47:49;;;;;;;;;;;;;;;;;;5420198;26;19998;-40
2024/04/18 10:50:15;;;;;;;;;;;;;;;;;;5417709;26;19929;-39
2024/04/18 10:52:41;;;;;;;;;;;;;;;;;;5429622;26;19968;-40
2024/04/18 10:55:07;;;;;;;;;;;;;;;;;;5432207;26;19932;-39
2024/04/18 10:57:32;;;;;;;;;;;;;;;;;;5450901;26;19940;-40
2024/04/18 10:59:58;;;;;;;;;;;;;;;;;;5432806;26;20370;-39
2024/04/18 11:02:24;;;;;;;;;;;;;;;;;;5448610;26;19973;-39
2024/04/18 11:04:50;;;;;;;;;;;;;;;;;;5426876;26;19941;-39
2024/04/18 11:07:16;;;;;;;;;;;;;;;;;;5412886;26;19929;-39
2024/04/18 11:09:43;;;;;;;;;;;;;;;;;;5412925;26;19929;-39
2024/04/18 11:12:09;;;;;;;;;;;;;;;;;;5412409;26;20362;-42
2024/04/18 11:14:35;;;;;;;;;;;;;;;;;;5414190;26;19929;-42
2024/04/18 11:17:01;;;;;;;;;;;;;;;;;;5414112;26;19929;-42
2024/04/18 11:19:27;;;;;;;;;;;;;;;;;;5414217;26;20004;-47
2024/04/18 11:21:53;;;;;;;;;;;;;;;;;;5413470;26;19940;-48
2024/04/18 11:24:20;;;;;;;;;;;;;;;;;;5409914;26;19952;-49
2024/04/18 11:26:46;;;;;;;;;;;;;;;;;;5415240;26;19929;-45
2024/04/18 11:29:12;;;;;;;;;;;;;;;;;;5381118;26;19939;-49
2024/04/18 11:31:37;;;;;;;;;;;;;;;;;;5408225;26;20253;-46
2024/04/18 11:34:03;;;;;;;;;;;;;;;;;;5418011;26;20377;-46
2024/04/18 11:36:29;;;;;;;;;;;;;;;;;;5437009;26;19936;-46
2024/04/18 11:38:55;;;;;;;;;;;;;;;;;;5432698;26;19937;-48
2024/04/18 11:41:22;;;;;;;;;;;;;;;;;;5420011;26;19935;-46
2024/04/18 11:43:47;;;;;;;;;;;;;;;;;;5415963;26;19969;-46
2024/04/18 11:46:13;;;;;;;;;;;;;;;;;;5414463;26;20001;-46
2024/04/18 11:48:39;;;;;;;;;;;;;;;;;;5410209;26;19936;-46
2024/04/18 11:51:05;;;;;;;;;;;;;;;;;;5434566;26;19928;-43
2024/04/18 11:53:31;;;;;;;;;;;;;;;;;;5413309;26;19957;-43
2024/04/18 11:55:57;;;;;;;;;;;;;;;;;;5418304;26;19937;-44
2024/04/18 11:58:23;;;;;;;;;;;;;;;;;;5403939;26;20363;-43
2024/04/18 12:00:49;;;;;;;;;;;;;;;;;;5415533;26;19935;-45
2024/04/18 12:03:15;;;;;;;;;;;;;;;;;;5432338;26;19936;-43
2024/04/18 12:05:41;;;;;;;;;;;;;;;;;;5423675;26;19999;-45
2024/04/18 12:08:06;;;;;;;;;;;;;;;;;;5401746;26;19929;-43
2024/04/18 12:10:32;;;;;;;;;;;;;;;;;;5437900;26;19936;-47
2024/04/18 12:12:58;;;;;;;;;;;;;;;;;;5407215;26;19936;-45
2024/04/18 12:15:24;;;;;;;;;;;;;;;;;;5423984;26;19935;-43
2024/04/18 12:17:50;;;;;;;;;;;;;;;;;;5430500;26;20387;-44
2024/04/18 12:20:17;;;;;;;;;;;;;;;;;;5450169;26;19929;-45
2024/04/18 12:22:42;;;;;;;;;;;;;;;;;;5435813;26;19941;-44
2024/04/18 12:25:08;;;;;;;;;;;;;;;;;;5448190;26;19933;-45
2024/04/18 12:27:34;;;;;;;;;;;;;;;;;;5426947;26;19928;-44
2024/04/18 12:30:00;;;;;;;;;;;;;;;;;;5413187;26;19948;-44
2024/04/18 12:32:26;;;;;;;;;;;;;;;;;;5406563;26;19982;-48
2024/04/18 12:34:52;;;;;;;;;;;;;;;;;;5395002;26;20262;-44
2024/04/18 12:37:18;;;;;;;;;;;;;;;;;;5449043;26;20238;-43
2024/04/18 12:39:45;;;;;;;;;;;;;;;;;;5431665;26;19936;-44
2024/04/18 12:42:11;;;;;;;;;;;;;;;;;;5430502;26;19936;-46
2024/04/18 12:44:37;;;;;;;;;;;;;;;;;;5426991;26;20359;-45
2024/04/18 12:47:03;;;;;;;;;;;;;;;;;;5420623;26;19929;-44
2024/04/18 12:49:29;;;;;;;;;;;;;;;;;;5431581;26;20272;-44
2024/04/18 12:51:56;;;;;;;;;;;;;;;;;;5417401;26;19956;-43
2024/04/18 12:54:22;;;;;;;;;;;;;;;;;;5444074;26;20258;-44
2024/04/18 12:56:48;;;;;;;;;;;;;;;;;;5439717;26;19937;-47
2024/04/18 12:59:13;;;;;;;;;;;;;;;;;;5443369;26;19935;-45
2024/04/18 13:01:39;;;;;;;;;;;;;;;;;;5451718;26;19932;-45
2024/04/18 13:04:05;;;;;;;;;;;;;;;;;;5427245;26;19929;-43
2024/04/18 13:06:31;;;;;;;;;;;;;;;;;;5415019;26;19937;-47
2024/04/18 13:08:57;;;;;;;;;;;;;;;;;;5415551;26;19929;-44
2024/04/18 13:11:23;;;;;;;;;;;;;;;;;;5415023;26;19937;-45
2024/04/18 13:13:49;;;;;;;;;;;;;;;;;;5415505;26;20371;-44
2024/04/18 13:16:15;;;;;;;;;;;;;;;;;;5415245;26;19940;-46
2024/04/18 13:18:42;;;;;;;;;;;;;;;;;;5415091;26;20374;-44
2024/04/18 13:21:08;;;;;;;;;;;;;;;;;;5414860;26;20261;-47
2024/04/18 13:23:35;;;;;;;;;;;;;;;;;;5415244;26;19937;-47
2024/04/18 13:26:00;;;;;;;;;;;;;;;;;;5415112;26;19929;-44
2024/04/18 13:28:26;;;;;;;;;;;;;;;;;;5414114;26;19986;-45
2024/04/18 13:30:52;;;;;;;;;;;;;;;;;;5414879;26;19936;-44
2024/04/18 13:33:18;;;;;;;;;;;;;;;;;;5414410;26;20389;-44
2024/04/18 13:35:44;;;;;;;;;;;;;;;;;;5415639;26;19993;-45
2024/04/18 13:38:10;;;;;;;;;;;;;;;;;;5414944;26;19929;-47
2024/04/18 13:40:36;;;;;;;;;;;;;;;;;;5414909;26;19929;-48
2024/04/18 13:43:02;;;;;;;;;;;;;;;;;;5415304;26;19929;-46
2024/04/18 13:45:29;;;;;;;;;;;;;;;;;;5414745;26;19936;-44
2024/04/18 13:47:55;;;;;;;;;;;;;;;;;;5414913;26;19997;-45
2024/04/18 13:50:20;;;;;;;;;;;;;;;;;;5414753;26;19929;-46
2024/04/18 13:52:46;;;;;;;;;;;;;;;;;;5415175;26;20379;-44
2024/04/18 13:55:12;;;;;;;;;;;;;;;;;;5414158;26;19929;-45
2024/04/18 13:57:38;;;;;;;;;;;;;;;;;;5414841;26;19935;-43
2024/04/18 14:00:04;;;;;;;;;;;;;;;;;;5414689;26;20260;-46
2024/04/18 14:02:30;;;;;;;;;;;;;;;;;;5414114;26;19929;-47
2024/04/18 14:04:56;;;;;;;;;;;;;;;;;;5414567;26;19998;-45
2024/04/18 14:07:22;;;;;;;;;;;;;;;;;;5414180;26;19929;-45
2024/04/18 14:09:47;;;;;;;;;;;;;;;;;;5415164;26;19929;-47
2024/04/18 14:12:13;;;;;;;;;;;;;;;;;;5414213;26;19933;-48
2024/04/18 14:14:39;;;;;;;;;;;;;;;;;;5414584;26;19957;-44
2024/04/18 14:19:50;;;;;;;;;;;;;;;;;;5414514;26;19994;-43
2024/04/18 14:22:16;;;;;;;;;;;;;;;;;;5414563;26;19940;-44
2024/04/18 14:24:42;;;;;;;;;;;;;;;;;;5414707;26;19929;-46
2024/04/18 14:27:07;;;;;;;;;;;;;;;;;;5414410;26;20394;-48
2024/04/18 14:29:33;;;;;;;;;;;;;;;;;;5433388;26;19972;-45
2024/04/18 14:31:59;;;;;;;;;;;;;;;;;;5415942;26;19933;-44
2024/04/18 14:34:25;;;;;;;;;;;;;;;;;;5420400;26;19929;-44
2024/04/18 14:36:51;;;;;;;;;;;;;;;;;;5393417;26;19935;-47
2024/04/18 14:39:17;;;;;;;;;;;;;;;;;;5421395;26;20298;-44
2024/04/18 14:41:43;;;;;;;;;;;;;;;;;;5442419;26;20001;-46
2024/04/18 14:44:09;;;;;;;;;;;;;;;;;;5419814;26;20362;-48
2024/04/18 14:46:35;;;;;;;;;;;;;;;;;;5440871;26;19928;-48
2024/04/18 14:49:03;;;;;;;;;;;;;;;;;;5424978;26;19936;-44
2024/04/18 14:51:29;;;;;;;;;;;;;;;;;;5446810;26;19935;-45
2024/04/18 14:53:54;;;;;;;;;;;;;;;;;;5447543;26;19929;-47
2024/04/18 14:56:20;;;;;;;;;;;;;;;;;;5411173;26;19929;-44
2024/04/18 14:58:46;;;;;;;;;;;;;;;;;;5414147;26;19929;-45
2024/04/18 15:01:12;;;;;;;;;;;;;;;;;;5413593;26;19928;-45
2024/04/18 15:03:38;;;;;;;;;;;;;;;;;;5413119;26;19936;-46
2024/04/18 15:06:04;;;;;;;;;;;;;;;;;;5413345;26;19929;-47
2024/04/18 15:08:30;;;;;;;;;;;;;;;;;;5413772;26;19929;-43
2024/04/18 15:10:56;;;;;;;;;;;;;;;;;;5413340;26;19933;-44
2024/04/18 15:13:22;;;;;;;;;;;;;;;;;;5413232;26;19936;-48
2024/04/18 15:15:48;;;;;;;;;;;;;;;;;;5413946;26;19929;-48
2024/04/18 15:18:13;;;;;;;;;;;;;;;;;;5403801;26;19971;-44
2024/04/18 15:20:39;;;;;;;;;;;;;;;;;;5407160;26;19929;-47
2024/04/18 15:23:06;;;;;;;;;;;;;;;;;;5412885;26;19928;-49
2024/04/18 15:25:32;;;;;;;;;;;;;;;;;;5416411;26;20338;-47
2024/04/18 15:27:58;;;;;;;;;;;;;;;;;;5419754;26;19935;-48
2024/04/18 15:30:23;;;;;;;;;;;;;;;;;;5371026;26;19929;-49
2024/04/18 15:32:49;;;;;;;;;;;;;;;;;;5411567;26;19941;-47
2024/04/18 15:35:15;;;;;;;;;;;;;;;;;;5415542;26;20278;-49
2024/04/18 15:37:41;;;;;;;;;;;;;;;;;;5409521;26;19929;-49
2024/04/18 15:40:07;;;;;;;;;;;;;;;;;;5415574;26;20013;-48
2024/04/18 15:42:33;;;;;;;;;;;;;;;;;;5411101;26;19936;-45
2024/04/18 15:44:59;;;;;;;;;;;;;;;;;;5404930;26;19932;-47
2024/04/18 15:47:25;;;;;;;;;;;;;;;;;;5417530;26;19935;-47
2024/04/18 15:49:51;;;;;;;;;;;;;;;;;;5411950;26;20009;-48
2024/04/18 15:52:16;;;;;;;;;;;;;;;;;;5410049;26;19943;-45
2024/04/18 15:54:42;;;;;;;;;;;;;;;;;;5413774;26;20262;-45
2024/04/18 15:57:08;;;;;;;;;;;;;;;;;;5414252;26;19937;-48
2024/04/18 15:59:34;;;;;;;;;;;;;;;;;;5414075;26;20351;-48
2024/04/18 16:02:00;;;;;;;;;;;;;;;;;;5443376;26;19928;-48
2024/04/18 16:04:26;;;;;;;;;;;;;;;;;;5420857;26;19940;-44
2024/04/18 16:06:52;;;;;;;;;;;;;;;;;;5417713;26;19929;-49
2024/04/18 16:09:18;;;;;;;;;;;;;;;;;;5400143;26;19929;-45
2024/04/18 16:11:43;;;;;;;;;;;;;;;;;;5411978;26;19937;-47
2024/04/18 16:14:09;;;;;;;;;;;;;;;;;;5385832;26;19929;-44
2024/04/18 16:16:35;;;;;;;;;;;;;;;;;;5420295;26;20002;-49
2024/04/18 16:19:01;;;;;;;;;;;;;;;;;;5442810;26;20353;-47
2024/04/18 16:21:27;;;;;;;;;;;;;;;;;;5438659;26;19936;-48
2024/04/18 16:23:53;;;;;;;;;;;;;;;;;;5405693;26;19998;-49
2024/04/18 16:26:19;;;;;;;;;;;;;;;;;;5408976;26;19944;-46
2024/04/18 16:28:45;;;;;;;;;;;;;;;;;;5424415;26;20004;-45
2024/04/18 16:31:11;;;;;;;;;;;;;;;;;;5420337;26;19935;-46
2024/04/18 16:33:38;;;;;;;;;;;;;;;;;;5442291;26;19930;-46
2024/04/18 16:36:04;;;;;;;;;;;;;;;;;;5414306;26;19936;-45
2024/04/18 16:38:30;;;;;;;;;;;;;;;;;;5390872;26;19929;-50
2024/04/18 16:40:56;;;;;;;;;;;;;;;;;;5399041;26;19940;-47
2024/04/18 16:43:22;;;;;;;;;;;;;;;;;;5414226;26;20271;-48
2024/04/18 16:45:47;;;;;;;;;;;;;;;;;;5413970;26;19936;-45
2024/04/18 16:48:13;;;;;;;;;;;;;;;;;;5414121;26;20058;-48
2024/04/18 16:50:39;;;;;;;;;;;;;;;;;;5414143;26;19933;-45
2024/04/18 16:53:05;;;;;;;;;;;;;;;;;;5401479;26;19933;-48
2024/04/18 16:55:31;;;;;;;;;;;;;;;;;;5398438;26;19929;-48
2024/04/18 16:57:57;;;;;;;;;;;;;;;;;;5428375;26;19939;-48
2024/04/18 17:00:23;;;;;;;;;;;;;;;;;;5447286;26;19981;-48
2024/04/18 17:02:49;;;;;;;;;;;;;;;;;;5415821;26;20267;-49
2024/04/18 17:05:14;;;;;;;;;;;;;;;;;;5413837;26;20365;-46
2024/04/18 17:07:40;;;;;;;;;;;;;;;;;;5414155;26;20066;-47
2024/04/18 17:10:06;;;;;;;;;;;;;;;;;;5411151;26;19929;-47
2024/04/18 17:12:32;;;;;;;;;;;;;;;;;;5407263;26;19936;-49
2024/04/18 17:14:58;;;;;;;;;;;;;;;;;;5413590;26;19928;-49
2024/04/18 17:17:24;;;;;;;;;;;;;;;;;;5382914;26;19929;-50
2024/04/18 17:19:50;;;;;;;;;;;;;;;;;;5381729;26;19929;-47
2024/04/18 17:22:16;;;;;;;;;;;;;;;;;;5412483;26;20392;-46
2024/04/18 17:24:42;;;;;;;;;;;;;;;;;;5411407;26;19928;-50
2024/04/18 17:27:07;;;;;;;;;;;;;;;;;;5430675;26;19934;-48
2024/04/18 17:29:33;;;;;;;;;;;;;;;;;;5415670;26;20023;-50
2024/04/18 17:31:59;;;;;;;;;;;;;;;;;;5403275;26;19929;-49
2024/04/18 17:34:27;;;;;;;;;;;;;;;;;;5412208;26;19933;-47
2024/04/18 17:36:53;;;;;;;;;;;;;;;;;;5414097;26;20006;-46
2024/04/18 17:39:19;;;;;;;;;;;;;;;;;;5414908;26;19937;-48
2024/04/18 17:41:45;;;;;;;;;;;;;;;;;;5415284;26;19936;-50
2024/04/18 17:44:11;;;;;;;;;;;;;;;;;;5415469;26;20008;-47
2024/04/18 17:46:37;;;;;;;;;;;;;;;;;;5399611;26;19929;-47
2024/04/18 17:49:03;;;;;;;;;;;;;;;;;;5414035;26;20433;-47
2024/04/18 17:51:28;;;;;;;;;;;;;;;;;;5393085;26;19929;-50
2024/04/18 17:53:54;;;;;;;;;;;;;;;;;;5411086;26;19928;-47
2024/04/18 17:56:20;;;;;;;;;;;;;;;;;;5385378;26;19929;-47
2024/04/18 17:58:46;;;;;;;;;;;;;;;;;;5416820;26;19929;-48
2024/04/18 18:01:12;;;;;;;;;;;;;;;;;;5417184;26;20358;-45
2024/04/18 18:03:38;;;;;;;;;;;;;;;;;;5424695;26;20254;-47
2024/04/18 18:06:04;;;;;;;;;;;;;;;;;;5418077;26;19944;-45
2024/04/18 18:08:30;;;;;;;;;;;;;;;;;;5429008;26;20362;-50
2024/04/18 18:10:55;;;;;;;;;;;;;;;;;;5425859;26;19947;-48
2024/04/18 18:13:21;;;;;;;;;;;;;;;;;;5422207;26;19935;-47
2024/04/18 18:15:47;;;;;;;;;;;;;;;;;;5442050;26;19978;-48
2024/04/18 18:18:13;;;;;;;;;;;;;;;;;;5425166;26;20333;-48
2024/04/18 18:20:41;;;;;;;;;;;;;;;;;;5416937;26;20230;-47
2024/04/18 18:23:07;;;;;;;;;;;;;;;;;;5398561;26;20009;-49
2024/04/18 18:25:33;;;;;;;;;;;;;;;;;;5427509;26;19937;-48
2024/04/18 18:27:59;;;;;;;;;;;;;;;;;;5381217;26;20422;-46
2024/04/18 18:30:24;;;;;;;;;;;;;;;;;;5443858;26;19940;-47
2024/04/18 18:32:50;;;;;;;;;;;;;;;;;;5422037;26;20363;-48
2024/04/18 18:35:16;;;;;;;;;;;;;;;;;;5402880;26;19936;-45
2024/04/18 18:37:42;;;;;;;;;;;;;;;;;;5427631;26;20568;-45
2024/04/18 18:40:08;;;;;;;;;;;;;;;;;;5401351;26;19956;-46
2024/04/18 18:42:34;;;;;;;;;;;;;;;;;;5441570;26;20013;-49
2024/04/18 18:45:00;;;;;;;;;;;;;;;;;;5380105;26;19930;-44
2024/04/18 18:47:26;;;;;;;;;;;;;;;;;;5381254;26;19961;-45
2024/04/18 18:49:52;;;;;;;;;;;;;;;;;;5416367;26;19935;-48
2024/04/18 18:52:19;;;;;;;;;;;;;;;;;;5419180;26;20013;-50
2024/04/18 18:54:44;;;;;;;;;;;;;;;;;;5429209;26;20021;-49
2024/04/18 18:57:11;;;;;;;;;;;;;;;;;;5416867;26;20429;-48
2024/04/18 18:59:37;;;;;;;;;;;;;;;;;;5414101;26;19936;-48
2024/04/18 19:02:03;;;;;;;;;;;;;;;;;;5436469;26;19935;-48
2024/04/18 19:04:29;;;;;;;;;;;;;;;;;;5446244;26;19936;-47
2024/04/18 19:06:55;;;;;;;;;;;;;;;;;;5425939;26;19929;-46
2024/04/18 19:09:22;;;;;;;;;;;;;;;;;;5413741;26;19938;-47
2024/04/18 19:11:49;;;;;;;;;;;;;;;;;;5438683;26;20443;-47
2024/04/18 19:14:15;;;;;;;;;;;;;;;;;;5382981;26;19929;-47
2024/04/18 19:16:41;;;;;;;;;;;;;;;;;;5446068;26;20379;-45
2024/04/18 19:19:07;;;;;;;;;;;;;;;;;;5413810;26;19929;-50
2024/04/18 19:21:33;;;;;;;;;;;;;;;;;;5422592;26;19932;-48
2024/04/18 19:23:58;;;;;;;;;;;;;;;;;;5432461;26;20365;-45
2024/04/18 19:26:26;;;;;;;;;;;;;;;;;;5428143;26;19940;-45
2024/04/18 19:28:52;;;;;;;;;;;;;;;;;;5445803;26;19935;-46
2024/04/18 19:31:19;;;;;;;;;;;;;;;;;;5409952;26;19936;-49
2024/04/18 19:33:45;;;;;;;;;;;;;;;;;;5437467;26;19994;-48
2024/04/18 19:36:13;;;;;;;;;;;;;;;;;;5410067;26;19937;-46
2024/04/18 19:38:41;;;;;;;;;;;;;;;;;;5425161;26;19928;-48
2024/04/18 19:41:07;;;;;;;;;;;;;;;;;;5413954;26;19937;-46
2024/04/18 19:43:34;;;;;;;;;;;;;;;;;;5417084;26;20259;-49
2024/04/18 19:46:00;;;;;;;;;;;;;;;;;;5419090;26;19929;-49
2024/04/18 19:48:26;;;;;;;;;;;;;;;;;;5407476;26;19935;-47
2024/04/18 19:50:52;;;;;;;;;;;;;;;;;;5442296;26;19928;-47
2024/04/18 19:53:18;;;;;;;;;;;;;;;;;;5444200;26;20258;-47
2024/04/18 19:55:43;;;;;;;;;;;;;;;;;;5390012;26;19929;-47
2024/04/18 19:58:09;;;;;;;;;;;;;;;;;;5416974;26;19933;-48
2024/04/18 20:00:35;;;;;;;;;;;;;;;;;;5419794;26;20430;-48
2024/04/18 20:03:01;;;;;;;;;;;;;;;;;;5443223;26;20041;-46
2024/04/18 20:05:27;;;;;;;;;;;;;;;;;;5442377;26;19929;-47
2024/04/18 20:07:53;;;;;;;;;;;;;;;;;;5443405;26;19940;-47
2024/04/18 20:10:19;;;;;;;;;;;;;;;;;;5417459;26;19929;-46
2024/04/18 20:12:45;;;;;;;;;;;;;;;;;;5410324;26;19929;-47
2024/04/18 20:15:11;;;;;;;;;;;;;;;;;;5377009;26;20378;-46
2024/04/18 20:17:36;;;;;;;;;;;;;;;;;;5416846;26;20369;-47
2024/04/18 20:20:02;;;;;;;;;;;;;;;;;;5432380;26;20282;-49
2024/04/18 20:22:28;;;;;;;;;;;;;;;;;;5424251;26;19929;-50
2024/04/18 20:24:54;;;;;;;;;;;;;;;;;;5403471;26;19928;-50
2024/04/18 20:27:24;;;;;;;;;;;;;;;;;;5420101;26;20271;-50
2024/04/18 20:29:50;;;;;;;;;;;;;;;;;;5423946;26;19936;-47
2024/04/18 20:32:16;;;;;;;;;;;;;;;;;;5422758;26;19937;-50
2024/04/18 20:34:42;;;;;;;;;;;;;;;;;;5412454;26;20245;-47
2024/04/18 20:37:08;;;;;;;;;;;;;;;;;;5409499;26;19936;-50
2024/04/18 20:39:34;;;;;;;;;;;;;;;;;;5429739;26;20014;-48
2024/04/18 20:42:02;;;;;;;;;;;;;;;;;;5422943;26;20259;-49
2024/04/18 20:44:28;;;;;;;;;;;;;;;;;;5447710;26;19932;-46
2024/04/18 20:46:53;;;;;;;;;;;;;;;;;;5438156;26;19929;-45
2024/04/18 20:49:22;;;;;;;;;;;;;;;;;;5416875;26;20339;-46
2024/04/18 20:51:48;;;;;;;;;;;;;;;;;;5421379;26;19940;-49
2024/04/18 20:54:15;;;;;;;;;;;;;;;;;;5431271;26;19928;-45
2024/04/18 20:56:40;;;;;;;;;;;;;;;;;;5432491;26;19936;-45
2024/04/18 20:59:06;;;;;;;;;;;;;;;;;;5421817;26;19937;-46
2024/04/18 21:01:33;;;;;;;;;;;;;;;;;;5400641;26;19928;-49
2024/04/18 21:03:59;;;;;;;;;;;;;;;;;;5430773;26;19929;-46
2024/04/18 21:06:25;;;;;;;;;;;;;;;;;;5445298;26;20005;-48
2024/04/18 21:08:51;;;;;;;;;;;;;;;;;;5423098;26;19935;-45
2024/04/18 21:11:16;;;;;;;;;;;;;;;;;;5415782;26;20274;-46
2024/04/18 21:13:42;;;;;;;;;;;;;;;;;;5414485;26;19936;-45
2024/04/18 21:16:08;;;;;;;;;;;;;;;;;;5414980;26;20270;-47
2024/04/18 21:18:34;;;;;;;;;;;;;;;;;;5415500;26;19929;-49
2024/04/18 21:21:00;;;;;;;;;;;;;;;;;;5415100;26;19977;-47
2024/04/18 21:23:26;;;;;;;;;;;;;;;;;;5415634;26;19929;-46
2024/04/18 21:25:52;;;;;;;;;;;;;;;;;;5414568;26;19929;-46
2024/04/18 21:28:18;;;;;;;;;;;;;;;;;;5415569;26;19929;-49
2024/04/18 21:30:44;;;;;;;;;;;;;;;;;;5415176;26;20361;-45
2024/04/18 21:33:09;;;;;;;;;;;;;;;;;;5415073;26;20002;-46
2024/04/18 21:35:35;;;;;;;;;;;;;;;;;;5415023;26;20365;-46
2024/04/18 21:38:01;;;;;;;;;;;;;;;;;;5414589;26;19929;-46
2024/04/18 21:40:27;;;;;;;;;;;;;;;;;;5415151;26;20407;-49
2024/04/18 21:42:55;;;;;;;;;;;;;;;;;;5414515;26;19937;-47
2024/04/18 21:45:22;;;;;;;;;;;;;;;;;;5415248;26;19936;-48
2024/04/18 21:47:48;;;;;;;;;;;;;;;;;;5415312;26;20050;-49
2024/04/18 21:50:14;;;;;;;;;;;;;;;;;;5413733;26;19929;-48
2024/04/18 21:52:40;;;;;;;;;;;;;;;;;;5415170;26;19949;-49
2024/04/18 21:55:06;;;;;;;;;;;;;;;;;;5414671;26;19928;-46
2024/04/18 21:57:32;;;;;;;;;;;;;;;;;;5414648;26;19929;-49
2024/04/18 21:59:58;;;;;;;;;;;;;;;;;;5414499;26;20001;-47